Time;durP1;ratioP1;P1;durP2;ratioP2;P2;SDS_P1;SDS_P2;PMS_P1;PMS_P2;Temp;Humidity;BMP_temperature;BMP_pressure;BME280_temperature;BME280_humidity;BME280_pressure;Samples;Min_cycle;Max_cycle;Signal;HPM_P1;HPM_P2
2022/10/12 00:01:12;;;;;;;7.32;3.88;;;7.60;99.90;;;;;;4950337;28;20059;-59
2022/10/12 00:03:39;;;;;;;7.55;3.30;;;7.60;99.90;;;;;;4951481;28;20547;-61
2022/10/12 00:06:11;;;;;;;8.30;4.25;;;7.60;99.90;;;;;;4953464;28;20405;-61
2022/10/12 00:08:38;;;;;;;11.98;4.15;;;7.50;99.90;;;;;;4931673;28;20508;-60
2022/10/12 00:11:05;;;;;;;6.45;3.72;;;7.50;99.90;;;;;;4936926;28;20050;-60
2022/10/12 00:13:32;;;;;;;6.15;3.33;;;7.50;99.90;;;;;;4952631;28;20054;-60
2022/10/12 00:16:02;;;;;;;7.32;4.13;;;7.50;99.90;;;;;;4934298;28;20047;-60
2022/10/12 00:18:28;;;;;;;6.45;3.97;;;7.50;99.90;;;;;;4950115;28;20486;-61
2022/10/12 00:21:03;;;;;;;9.77;4.35;;;7.50;99.90;;;;;;4935437;28;20094;-59
2022/10/12 00:23:30;;;;;;;7.63;3.60;;;7.50;99.90;;;;;;4945251;28;20061;-60
2022/10/12 00:25:59;;;;;;;7.30;4.20;;;7.50;99.90;;;;;;4943080;28;20055;-60
2022/10/12 00:28:25;;;;;;;8.30;4.32;;;7.40;99.90;;;;;;4950732;28;20054;-59
2022/10/12 00:30:51;;;;;;;9.68;4.07;;;7.50;99.90;;;;;;4949172;28;20129;-60
2022/10/12 00:33:16;;;;;;;12.40;4.18;;;7.50;99.90;;;;;;4950683;28;20093;-60
2022/10/12 00:35:42;;;;;;;10.07;4.50;;;7.50;99.90;;;;;;4949486;28;20047;-59
2022/10/12 00:38:08;;;;;;;7.45;4.15;;;7.50;99.90;;;;;;4949321;28;20106;-61
2022/10/12 00:40:34;;;;;;;9.23;4.30;;;7.40;99.90;;;;;;4947005;28;20109;-60
2022/10/12 00:42:59;;;;;;;10.25;4.35;;;7.40;99.90;;;;;;4926455;28;20611;-61
2022/10/12 00:45:26;;;;;;;7.85;3.72;;;7.40;99.90;;;;;;4929251;28;20827;-60
2022/10/12 00:47:56;;;;;;;6.30;3.20;;;7.40;99.90;;;;;;4928478;28;20193;-60
2022/10/12 00:50:32;;;;;;;10.15;3.65;;;7.40;99.90;;;;;;4926851;28;20571;-60
2022/10/12 00:53:13;;;;;;;6.32;3.60;;;7.40;99.90;;;;;;4930309;28;20066;-60
2022/10/12 00:55:45;;;;;;;7.88;3.03;;;7.30;99.90;;;;;;4946244;28;20094;-61
2022/10/12 00:58:13;;;;;;;9.15;3.47;;;7.30;99.90;;;;;;4932757;28;20169;-60
2022/10/12 01:00:39;;;;;;;5.18;2.70;;;7.30;99.90;;;;;;4950318;28;20043;-61
2022/10/12 01:03:08;;;;;;;6.47;3.00;;;7.30;99.90;;;;;;4950783;28;20094;-59
2022/10/12 01:05:39;;;;;;;6.35;3.00;;;7.20;99.90;;;;;;4926637;28;20140;-61
2022/10/12 01:08:05;;;;;;;6.15;3.50;;;7.20;99.90;;;;;;4945959;28;20050;-59
2022/10/12 01:10:31;;;;;;;5.20;3.22;;;7.10;99.90;;;;;;4926167;28;20125;-60
2022/10/12 01:12:58;;;;;;;6.07;3.42;;;7.10;99.90;;;;;;4939368;28;20138;-60
2022/10/12 01:15:32;;;;;;;7.15;3.20;;;7.10;99.90;;;;;;4949914;28;20126;-60
2022/10/12 01:18:22;;;;;;;8.00;3.72;;;7.10;99.90;;;;;;4950304;28;20042;-59
2022/10/12 01:20:48;;;;;;;7.55;3.90;;;7.10;99.90;;;;;;4949623;28;20047;-60
2022/10/12 01:23:17;;;;;;;9.63;4.57;;;7.00;99.90;;;;;;4929376;28;20610;-60
2022/10/12 01:25:58;;;;;;;8.65;4.50;;;7.10;99.90;;;;;;4946298;28;20054;-60
2022/10/12 01:28:45;;;;;;;5.63;3.25;;;7.10;99.90;;;;;;4947401;28;20054;-59
2022/10/12 01:31:17;;;;;;;7.07;3.05;;;7.10;99.90;;;;;;4929106;28;20744;-60
2022/10/12 01:33:49;;;;;;;10.07;3.50;;;7.00;99.90;;;;;;4932202;28;20125;-61
2022/10/12 01:36:26;;;;;;;9.75;4.78;;;7.00;99.90;;;;;;4934380;28;20047;-60
2022/10/12 01:39:14;;;;;;;12.27;3.90;;;7.00;99.90;;;;;;4946277;28;21233;-60
2022/10/12 01:41:48;;;;;;;8.93;3.30;;;7.00;99.90;;;;;;4916530;28;20086;-59
2022/10/12 01:44:25;;;;;;;11.15;4.07;;;7.00;99.90;;;;;;4946543;28;20066;-61
2022/10/12 01:46:53;;;;;;;10.82;3.58;;;7.00;99.90;;;;;;4947625;28;20662;-61
2022/10/12 01:49:26;;;;;;;11.38;3.58;;;7.00;99.90;;;;;;4932574;28;20106;-60
2022/10/12 01:52:01;;;;;;;10.65;3.83;;;7.00;99.90;;;;;;4930381;28;20059;-61
2022/10/12 01:54:45;;;;;;;10.48;3.40;;;7.00;99.90;;;;;;4949313;28;20129;-60
2022/10/12 01:57:31;;;;;;;11.02;3.97;;;7.00;99.90;;;;;;4948296;28;20050;-59
2022/10/12 02:00:11;;;;;;;13.15;3.67;;;6.90;99.90;;;;;;4948173;28;20105;-59
2022/10/12 02:02:58;;;;;;;11.27;4.45;;;7.00;99.90;;;;;;4930088;28;20059;-60
2022/10/12 02:05:39;;;;;;;14.48;4.18;;;7.00;99.90;;;;;;4916009;28;20388;-60
2022/10/12 02:08:21;;;;;;;10.57;3.80;;;7.10;99.90;;;;;;4933323;28;20116;-59
2022/10/12 02:11:00;;;;;;;10.20;4.75;;;7.10;99.90;;;;;;4946655;28;20514;-60
2022/10/12 02:13:30;;;;;;;13.25;4.32;;;7.10;99.90;;;;;;4935496;28;20074;-60
2022/10/12 02:15:59;;;;;;;18.30;5.10;;;7.10;99.90;;;;;;4932000;28;20589;-60
2022/10/12 02:18:27;;;;;;;9.57;4.30;;;7.20;99.90;;;;;;4951088;28;20039;-59
2022/10/12 02:20:56;;;;;;;12.27;4.53;;;7.20;99.90;;;;;;4930763;28;20055;-60
2022/10/12 02:23:24;;;;;;;14.07;4.43;;;7.20;99.90;;;;;;4948754;28;20508;-61
2022/10/12 02:25:52;;;;;;;12.82;4.20;;;7.20;99.90;;;;;;4947007;28;20565;-59
2022/10/12 02:28:21;;;;;;;9.93;4.13;;;7.30;99.90;;;;;;4923373;28;20051;-61
2022/10/12 02:31:06;;;;;;;14.13;4.63;;;7.30;99.90;;;;;;4930343;28;20089;-61
2022/10/12 02:33:41;;;;;;;7.82;3.53;;;7.30;99.90;;;;;;4948152;28;20070;-60
2022/10/12 02:36:24;;;;;;;14.70;4.00;;;7.40;99.90;;;;;;4948828;28;20132;-61
2022/10/12 02:38:59;;;;;;;16.75;5.05;;;7.40;99.90;;;;;;4948963;28;20055;-60
2022/10/12 02:41:30;;;;;;;18.02;5.00;;;7.40;99.90;;;;;;4946304;28;20099;-59
2022/10/12 02:44:00;;;;;;;10.77;4.05;;;7.40;99.90;;;;;;4930162;28;20075;-61
2022/10/12 02:46:28;;;;;;;9.73;4.28;;;7.50;99.90;;;;;;4931609;28;20125;-59
2022/10/12 02:48:58;;;;;;;11.88;4.47;;;7.50;99.90;;;;;;4929749;28;20085;-59
2022/10/12 02:51:26;;;;;;;13.05;4.65;;;7.50;99.90;;;;;;4918800;28;20137;-60
2022/10/12 02:53:53;;;;;;;12.82;4.70;;;7.40;99.90;;;;;;4932888;28;20057;-59
2022/10/12 02:56:19;;;;;;;5.63;3.65;;;7.40;99.90;;;;;;4938477;28;20436;-61
2022/10/12 02:58:46;;;;;;;8.63;3.65;;;7.40;99.90;;;;;;4943761;28;20065;-60
2022/10/12 03:01:12;;;;;;;5.55;3.72;;;7.20;99.90;;;;;;4953287;28;20102;-59
2022/10/12 03:03:39;;;;;;;7.90;3.80;;;7.30;99.90;;;;;;4954521;28;20047;-60
2022/10/12 03:06:05;;;;;;;11.18;4.07;;;7.30;99.90;;;;;;4939011;28;20134;-59
2022/10/12 03:08:31;;;;;;;14.60;4.55;;;7.30;99.90;;;;;;4937222;28;20051;-60
2022/10/12 03:11:04;;;;;;;13.30;4.35;;;7.30;99.90;;;;;;4954019;28;20097;-61
2022/10/12 03:13:30;;;;;;;12.77;4.15;;;7.30;99.90;;;;;;4953221;28;20170;-61
2022/10/12 03:16:08;;;;;;;11.15;3.92;;;7.30;99.90;;;;;;4941324;28;20055;-61
2022/10/12 03:18:34;;;;;;;9.80;4.35;;;7.30;99.90;;;;;;4929406;28;20617;-60
2022/10/12 03:21:00;;;;;;;12.88;4.88;;;7.30;99.90;;;;;;4942086;28;20318;-59
2022/10/12 03:23:26;;;;;;;12.63;4.47;;;7.20;99.90;;;;;;4938588;28;20117;-61
2022/10/12 03:25:52;;;;;;;11.38;4.82;;;7.30;99.90;;;;;;4950712;28;20054;-60
2022/10/12 03:28:18;;;;;;;13.70;4.90;;;7.30;99.90;;;;;;4950177;28;20133;-61
2022/10/12 03:30:45;;;;;;;9.50;4.10;;;7.30;99.90;;;;;;4956889;28;20051;-60
2022/10/12 03:33:11;;;;;;;11.18;4.72;;;7.30;99.90;;;;;;4951915;28;20046;-59
2022/10/12 03:35:37;;;;;;;11.10;4.28;;;7.30;99.90;;;;;;4937872;28;20039;-60
2022/10/12 03:38:03;;;;;;;9.77;3.70;;;7.30;99.90;;;;;;4937451;28;20509;-59
2022/10/12 03:40:29;;;;;;;9.02;3.70;;;7.40;99.90;;;;;;4953388;28;20051;-60
2022/10/12 03:42:55;;;;;;;10.77;3.60;;;7.40;99.90;;;;;;4935463;28;20050;-59
2022/10/12 03:45:21;;;;;;;10.20;3.92;;;7.30;99.90;;;;;;4954742;28;20050;-61
2022/10/12 03:47:46;;;;;;;7.90;3.95;;;7.30;99.90;;;;;;4952224;28;20055;-60
2022/10/12 03:50:12;;;;;;;9.68;3.60;;;7.30;99.90;;;;;;4921761;28;20061;-58
2022/10/12 03:52:38;;;;;;;10.32;3.83;;;7.30;99.90;;;;;;4953817;28;20038;-59
2022/10/12 03:55:05;;;;;;;8.88;3.70;;;7.30;99.90;;;;;;4954349;28;20043;-59
2022/10/12 03:57:30;;;;;;;7.82;3.22;;;7.30;99.90;;;;;;4939001;28;20057;-61
2022/10/12 03:59:56;;;;;;;10.73;3.72;;;7.30;99.90;;;;;;4955229;28;20047;-60
2022/10/12 04:02:22;;;;;;;10.57;3.83;;;7.30;99.90;;;;;;4933742;28;20461;-60
2022/10/12 04:04:48;;;;;;;9.77;3.58;;;7.30;99.90;;;;;;4935285;28;20035;-60
2022/10/12 04:07:14;;;;;;;8.15;3.47;;;7.30;99.90;;;;;;4937275;28;20106;-61
2022/10/12 04:09:39;;;;;;;7.40;3.28;;;7.30;99.90;;;;;;4931574;28;20047;-61
2022/10/12 04:12:05;;;;;;;7.38;3.15;;;7.30;99.90;;;;;;4935553;28;20050;-59
2022/10/12 04:14:31;;;;;;;10.80;3.53;;;7.30;99.90;;;;;;4932060;28;20054;-60
2022/10/12 04:16:57;;;;;;;10.13;3.65;;;7.30;99.90;;;;;;4932667;28;20106;-59
2022/10/12 04:19:23;;;;;;;11.35;3.78;;;7.30;99.90;;;;;;4931171;28;20069;-60
2022/10/12 04:21:49;;;;;;;10.43;3.30;;;7.20;99.90;;;;;;4931721;28;20409;-61
2022/10/12 04:24:14;;;;;;;10.38;3.80;;;7.30;99.90;;;;;;4932223;28;20064;-60
2022/10/12 04:26:40;;;;;;;11.82;3.35;;;7.30;99.90;;;;;;4930679;28;20202;-59
2022/10/12 04:29:06;;;;;;;14.10;3.88;;;7.30;99.90;;;;;;4931057;28;20048;-59
2022/10/12 04:31:32;;;;;;;16.63;4.75;;;7.40;99.90;;;;;;4930935;28;20047;-61
2022/10/12 04:33:57;;;;;;;10.63;4.43;;;7.30;99.90;;;;;;4932035;28;20079;-60
2022/10/12 04:36:25;;;;;;;15.90;4.22;;;7.40;99.90;;;;;;4932940;28;20120;-60
2022/10/12 04:38:51;;;;;;;11.65;3.90;;;7.30;99.90;;;;;;4919817;29;20138;-60
2022/10/12 04:41:17;;;;;;;11.23;3.80;;;7.30;99.90;;;;;;4928764;28;20059;-61
2022/10/12 04:43:43;;;;;;;9.27;3.95;;;7.20;99.90;;;;;;4923923;28;20078;-59
2022/10/12 04:46:08;;;;;;;8.30;3.78;;;7.30;99.90;;;;;;4932451;28;20063;-61
2022/10/12 04:48:34;;;;;;;7.10;3.60;;;7.20;99.90;;;;;;4933299;28;20402;-59
2022/10/12 04:51:00;;;;;;;9.73;3.53;;;7.20;99.90;;;;;;4929461;28;20047;-60
2022/10/12 04:53:26;;;;;;;9.70;4.03;;;7.20;99.90;;;;;;4930507;28;20059;-61
2022/10/12 04:55:52;;;;;;;8.50;3.10;;;7.10;99.90;;;;;;4930752;28;20059;-61
2022/10/12 04:58:17;;;;;;;10.35;3.83;;;7.10;99.90;;;;;;4928739;28;20048;-59
2022/10/12 05:00:43;;;;;;;11.18;3.60;;;7.10;99.90;;;;;;4931802;28;20063;-60
2022/10/12 05:03:09;;;;;;;9.10;3.75;;;7.10;99.90;;;;;;4947506;28;20102;-59
2022/10/12 05:05:35;;;;;;;12.27;3.70;;;7.10;99.90;;;;;;4948449;28;20043;-61
2022/10/12 05:08:02;;;;;;;10.88;4.05;;;7.10;99.90;;;;;;4948111;28;20051;-60
2022/10/12 05:10:28;;;;;;;9.55;4.22;;;7.10;99.90;;;;;;4949310;28;20517;-60
2022/10/12 05:12:53;;;;;;;13.95;4.32;;;7.00;99.90;;;;;;4933249;28;20178;-60
2022/10/12 05:15:19;;;;;;;11.32;3.80;;;7.00;99.90;;;;;;4947664;28;20507;-60
2022/10/12 05:17:45;;;;;;;12.88;4.10;;;7.00;99.90;;;;;;4949572;28;20518;-59
2022/10/12 05:20:11;;;;;;;10.25;4.68;;;7.00;99.90;;;;;;4939570;28;20047;-60
2022/10/12 05:22:37;;;;;;;10.20;4.10;;;7.00;99.90;;;;;;4931839;28;20055;-60
2022/10/12 05:25:03;;;;;;;16.40;4.72;;;7.00;99.90;;;;;;4947100;28;20058;-59
2022/10/12 05:27:29;;;;;;;16.40;4.60;;;6.90;99.90;;;;;;4929370;28;20089;-61
2022/10/12 05:29:55;;;;;;;11.90;4.78;;;6.90;99.90;;;;;;4946990;28;20047;-60
2022/10/12 05:32:21;;;;;;;15.32;5.13;;;6.90;99.90;;;;;;4922670;28;20044;-60
2022/10/12 05:34:47;;;;;;;9.45;3.97;;;6.90;99.90;;;;;;4935346;28;20047;-60
2022/10/12 05:37:13;;;;;;;8.85;3.70;;;6.90;99.90;;;;;;4934790;28;20047;-61
2022/10/12 05:39:38;;;;;;;7.10;3.58;;;6.90;99.90;;;;;;4951767;28;20057;-60
2022/10/12 05:42:04;;;;;;;6.45;3.55;;;6.80;99.90;;;;;;4936798;28;20118;-60
2022/10/12 05:44:30;;;;;;;12.02;4.13;;;6.80;99.90;;;;;;4931505;28;21131;-60
2022/10/12 05:46:56;;;;;;;12.65;4.88;;;6.70;99.90;;;;;;4944487;28;20101;-60
2022/10/12 05:49:22;;;;;;;10.55;4.65;;;6.80;99.90;;;;;;4947183;28;20051;-59
2022/10/12 05:51:47;;;;;;;13.20;4.45;;;6.70;99.90;;;;;;4917006;28;20496;-60
2022/10/12 05:54:13;;;;;;;12.90;4.80;;;6.70;99.90;;;;;;4948623;28;20405;-60
2022/10/12 05:56:39;;;;;;;14.63;5.18;;;6.70;99.90;;;;;;4927758;28;20047;-60
2022/10/12 05:59:05;;;;;;;15.38;5.72;;;6.70;99.90;;;;;;4949979;28;20161;-59
2022/10/12 06:01:30;;;;;;;14.95;5.95;;;6.70;99.90;;;;;;4951623;28;20059;-61
2022/10/12 06:03:56;;;;;;;12.23;5.60;;;6.80;99.90;;;;;;4952662;28;20062;-61
2022/10/12 06:06:22;;;;;;;18.10;5.50;;;6.80;99.90;;;;;;4950862;28;20054;-60
2022/10/12 06:08:48;;;;;;;16.67;6.00;;;6.80;99.90;;;;;;4928116;28;20130;-61
2022/10/12 06:11:14;;;;;;;13.63;5.28;;;6.80;99.90;;;;;;4927894;28;20086;-59
2022/10/12 06:13:39;;;;;;;18.35;6.53;;;6.90;99.90;;;;;;4948409;28;20055;-61
2022/10/12 06:16:06;;;;;;;18.02;7.00;;;6.90;99.90;;;;;;4952482;28;20766;-60
2022/10/12 06:18:32;;;;;;;22.35;7.47;;;6.90;99.90;;;;;;4951890;28;20070;-59
2022/10/12 06:20:57;;;;;;;15.38;7.00;;;6.90;99.90;;;;;;4952901;28;20051;-61
2022/10/12 06:23:23;;;;;;;17.20;6.63;;;6.90;99.90;;;;;;4934127;28;20058;-60
2022/10/12 06:25:51;;;;;;;15.25;6.38;;;6.80;99.90;;;;;;4952574;28;20081;-60
2022/10/12 06:28:21;;;;;;;19.52;6.40;;;6.80;99.90;;;;;;4937252;28;20516;-60
2022/10/12 06:30:58;;;;;;;17.05;6.50;;;6.80;99.90;;;;;;4949620;28;20073;-61
2022/10/12 06:33:26;;;;;;;14.30;6.28;;;6.80;99.90;;;;;;4951402;28;20097;-61
2022/10/12 06:35:52;;;;;;;13.57;5.65;;;6.80;99.90;;;;;;4952710;28;20291;-60
2022/10/12 06:38:18;;;;;;;16.15;6.05;;;6.70;99.90;;;;;;4951468;28;20446;-61
2022/10/12 06:40:44;;;;;;;12.48;5.82;;;6.80;99.90;;;;;;4953275;28;20051;-60
2022/10/12 06:43:10;;;;;;;18.15;7.13;;;6.80;99.90;;;;;;4953827;28;20051;-60
2022/10/12 06:45:36;;;;;;;19.75;7.35;;;6.80;99.90;;;;;;4936064;28;20051;-61
2022/10/12 06:48:03;;;;;;;13.63;7.05;;;6.80;99.90;;;;;;4941714;28;20125;-60
2022/10/12 06:50:28;;;;;;;19.13;6.75;;;6.90;99.90;;;;;;4936450;28;20255;-59
2022/10/12 06:52:54;;;;;;;20.42;7.55;;;6.90;99.90;;;;;;4952341;28;20508;-59
2022/10/12 06:55:20;;;;;;;13.90;7.15;;;7.00;99.90;;;;;;4953685;28;20050;-60
2022/10/12 06:57:46;;;;;;;12.60;6.75;;;6.90;99.90;;;;;;4952658;28;20049;-60
2022/10/12 07:00:12;;;;;;;15.15;7.47;;;7.00;99.90;;;;;;4948749;28;20047;-60
2022/10/12 07:02:39;;;;;;;20.92;7.80;;;7.00;99.90;;;;;;4949720;28;20501;-61
2022/10/12 07:05:06;;;;;;;17.00;7.90;;;7.00;99.90;;;;;;4932508;28;20050;-60
2022/10/12 07:07:33;;;;;;;16.27;7.60;;;7.00;99.90;;;;;;4933076;28;20145;-61
2022/10/12 07:09:59;;;;;;;14.75;7.70;;;7.00;99.90;;;;;;4949712;28;20055;-61
2022/10/12 07:12:25;;;;;;;17.20;8.07;;;7.10;99.90;;;;;;4949409;28;20504;-60
2022/10/12 07:14:51;;;;;;;17.83;8.05;;;7.10;99.90;;;;;;4948956;28;20490;-60
2022/10/12 07:17:17;;;;;;;19.15;8.10;;;7.10;99.90;;;;;;4951641;28;20101;-60
2022/10/12 07:19:42;;;;;;;17.05;7.90;;;7.10;99.90;;;;;;4932715;28;20053;-61
2022/10/12 07:22:08;;;;;;;20.35;7.43;;;7.20;99.90;;;;;;4949975;28;20138;-60
2022/10/12 07:24:37;;;;;;;19.95;8.85;;;7.20;99.90;;;;;;4948023;28;20125;-60
2022/10/12 07:27:06;;;;;;;16.95;7.80;;;7.30;99.90;;;;;;4943672;28;20832;-61
2022/10/12 07:29:33;;;;;;;17.77;8.38;;;7.30;99.90;;;;;;4939412;28;20058;-60
2022/10/12 07:31:59;;;;;;;20.60;8.48;;;7.40;99.90;;;;;;4933197;28;20181;-59
2022/10/12 07:34:26;;;;;;;14.32;7.53;;;7.40;99.90;;;;;;4950441;28;20051;-60
2022/10/12 07:36:52;;;;;;;16.98;7.68;;;7.50;99.90;;;;;;4939400;28;20129;-59
2022/10/12 07:39:18;;;;;;;23.27;7.82;;;7.60;99.90;;;;;;4937880;28;20050;-62
2022/10/12 07:41:44;;;;;;;18.10;7.60;;;7.60;99.90;;;;;;4939798;28;20057;-61
2022/10/12 07:44:10;;;;;;;17.98;8.10;;;7.70;99.90;;;;;;4951429;28;20413;-61
2022/10/12 07:46:36;;;;;;;17.90;7.68;;;7.80;99.90;;;;;;4951859;28;20134;-61
2022/10/12 07:49:02;;;;;;;23.73;7.78;;;7.90;99.90;;;;;;4928876;28;20058;-59
2022/10/12 07:51:29;;;;;;;17.17;7.88;;;8.00;99.90;;;;;;4955019;28;20051;-60
2022/10/12 07:53:55;;;;;;;21.80;7.57;;;8.10;99.90;;;;;;4954374;28;20055;-61
2022/10/12 07:56:20;;;;;;;17.83;7.53;;;8.20;99.90;;;;;;4937390;28;20078;-61
2022/10/12 07:58:48;;;;;;;15.35;6.68;;;8.30;99.90;;;;;;4955601;28;20050;-60
2022/10/12 08:01:15;;;;;;;18.52;7.05;;;8.40;99.90;;;;;;4954473;28;20046;-60
2022/10/12 08:03:41;;;;;;;18.42;6.72;;;8.50;99.90;;;;;;4952919;28;20500;-61
2022/10/12 08:06:12;;;;;;;17.00;6.75;;;8.60;99.90;;;;;;4940324;28;20129;-60
2022/10/12 08:08:38;;;;;;;13.07;6.22;;;8.70;99.90;;;;;;4951387;28;20049;-60
2022/10/12 08:11:04;;;;;;;16.52;6.47;;;8.90;99.90;;;;;;4952754;28;20101;-59
2022/10/12 08:13:31;;;;;;;15.57;6.15;;;9.00;99.90;;;;;;4936688;28;20138;-60
2022/10/12 08:15:56;;;;;;;18.40;6.38;;;9.10;99.90;;;;;;4954305;28;22071;-61
2022/10/12 08:18:22;;;;;;;15.65;5.90;;;9.20;99.90;;;;;;4950648;28;20047;-61
2022/10/12 08:20:48;;;;;;;20.15;6.07;;;9.40;99.90;;;;;;4951616;28;20051;-61
2022/10/12 08:23:14;;;;;;;19.55;6.38;;;9.50;99.90;;;;;;4951939;28;20374;-62
2022/10/12 08:25:40;;;;;;;13.45;6.10;;;9.70;99.90;;;;;;4954137;28;20054;-61
2022/10/12 08:28:06;;;;;;;15.15;6.28;;;9.90;99.90;;;;;;4933777;28;20134;-60
2022/10/12 08:30:37;;;;;;;19.48;6.55;;;10.10;99.90;;;;;;4952576;28;20393;-60
2022/10/12 08:33:03;;;;;;;12.05;5.82;;;10.20;99.90;;;;;;4941217;28;20082;-61
2022/10/12 08:35:29;;;;;;;19.58;6.68;;;10.40;99.90;;;;;;4952876;28;20297;-61
2022/10/12 08:37:54;;;;;;;14.00;5.72;;;10.50;99.90;;;;;;4933462;28;20042;-61
2022/10/12 08:40:30;;;;;;;14.05;5.47;;;10.60;99.90;;;;;;4936666;28;20046;-61
2022/10/12 08:43:13;;;;;;;16.67;5.60;;;10.70;99.90;;;;;;4951810;28;20130;-61
2022/10/12 08:45:54;;;;;;;16.17;5.80;;;10.70;99.90;;;;;;4951000;28;20452;-60
2022/10/12 08:48:30;;;;;;;13.55;5.68;;;10.70;99.90;;;;;;4934114;28;20054;-60
2022/10/12 08:50:58;;;;;;;14.32;6.35;;;10.70;99.90;;;;;;4952186;28;20137;-59
2022/10/12 08:54:11;;;;;;;18.38;6.22;;;10.70;99.90;;;;;;4947813;28;20047;-61
2022/10/12 08:56:39;;;;;;;18.00;7.20;;;10.60;99.90;;;;;;4886921;29;20047;-62
2022/10/12 08:59:12;;;;;;;16.75;7.55;;;10.60;99.90;;;;;;4948200;28;20042;-60
2022/10/12 09:01:49;;;;;;;;;;;10.60;99.90;;;;;;4953321;28;20091;-61
2022/10/12 09:04:48;;;;;;;15.55;7.63;;;10.60;99.90;;;;;;4951538;28;19918;-62
2022/10/12 09:07:19;;;;;;;15.98;8.27;;;10.60;99.90;;;;;;4934768;28;20126;-60
2022/10/12 09:10:09;;;;;;;22.38;8.70;;;10.70;99.90;;;;;;4940095;28;20628;-60
2022/10/12 09:13:01;;;;;;;18.92;8.70;;;10.80;99.90;;;;;;4931297;28;20058;-59
2022/10/12 09:15:52;;;;;;;15.73;8.30;;;10.90;99.90;;;;;;4951514;28;20252;-60
2022/10/12 09:18:39;;;;;;;20.08;8.00;;;11.00;99.90;;;;;;4950991;28;20046;-61
2022/10/12 09:21:07;;;;;;;17.02;8.02;;;11.10;99.90;;;;;;4935502;28;20047;-61
2022/10/12 09:23:38;;;;;;;22.60;7.63;;;11.30;99.90;;;;;;4933123;28;20089;-60
2022/10/12 09:26:38;;;;;;;26.35;8.82;;;11.40;99.90;;;;;;4951532;28;20601;-60
2022/10/12 09:29:50;;;;;;;21.30;8.13;;;11.60;99.90;;;;;;4953245;28;20382;-61
2022/10/12 09:32:22;;;;;;;14.18;7.20;;;11.80;99.90;;;;;;4883452;29;20110;-60
2022/10/12 09:34:48;;;;;;;15.85;7.03;;;11.90;99.90;;;;;;4867304;29;20155;-62
2022/10/12 09:37:19;;;;;;;21.23;7.95;;;12.10;99.90;;;;;;4918691;28;20105;-61
2022/10/12 09:39:45;;;;;;;14.77;7.20;;;12.20;99.90;;;;;;4953890;28;20070;-60
2022/10/12 09:42:11;;;;;;;17.00;6.65;;;12.30;99.90;;;;;;4951746;28;20051;-61
2022/10/12 09:44:45;;;;;;;16.70;6.18;;;12.50;99.90;;;;;;4932888;28;20490;-61
2022/10/12 09:47:23;;;;;;;11.52;5.22;;;12.60;99.90;;;;;;4949451;28;20046;-60
2022/10/12 09:49:50;;;;;;;16.48;5.07;;;12.80;99.90;;;;;;4949453;28;20054;-60
2022/10/12 09:52:20;;;;;;;16.20;4.55;;;12.90;99.90;;;;;;4935314;28;20050;-61
2022/10/12 09:54:52;;;;;;;16.67;4.72;;;13.10;99.90;;;;;;4934711;28;20142;-60
2022/10/12 09:57:27;;;;;;;17.55;4.28;;;13.20;99.90;;;;;;4934236;28;20051;-60
2022/10/12 09:59:54;;;;;;;14.55;4.05;;;13.40;99.90;;;;;;4948195;28;20065;-61
2022/10/12 10:02:22;;;;;;;14.93;4.55;;;13.50;99.90;;;;;;4944395;28;20058;-61
2022/10/12 10:04:50;;;;;;;17.48;4.55;;;13.70;99.90;;;;;;4928405;28;20063;-62
2022/10/12 10:07:29;;;;;;;12.30;3.40;;;13.90;99.90;;;;;;4930267;28;20047;-61
2022/10/12 10:10:17;;;;;;;17.08;4.00;;;14.00;99.90;;;;;;4929290;28;20043;-60
2022/10/12 10:12:48;;;;;;;18.00;4.00;;;14.10;99.90;;;;;;4929027;28;20577;-60
2022/10/12 10:15:39;;;;;;;14.27;3.97;;;14.20;99.90;;;;;;4930586;29;20205;-62
2022/10/12 10:18:18;;;;;;;12.90;3.85;;;14.40;99.90;;;;;;4929811;28;20074;-60
2022/10/12 10:20:56;;;;;;;10.38;3.78;;;14.50;99.90;;;;;;4932275;28;20513;-60
2022/10/12 10:23:43;;;;;;;10.07;3.53;;;14.60;99.90;;;;;;4934153;28;20063;-60
2022/10/12 10:26:15;;;;;;;14.98;3.78;;;14.70;99.90;;;;;;4927832;28;20162;-63
2022/10/12 10:28:43;;;;;;;17.27;4.05;;;14.70;99.90;;;;;;4930428;28;20054;-61
2022/10/12 10:31:12;;;;;;;12.63;4.15;;;14.70;99.90;;;;;;4927696;28;20062;-61
2022/10/12 10:34:15;;;;;;;15.20;3.80;;;14.80;99.90;;;;;;4936869;28;20059;-60
2022/10/12 10:36:59;;;;;;;12.25;3.67;;;14.90;99.90;;;;;;4939117;28;20050;-62
2022/10/12 10:39:51;;;;;;;15.60;4.18;;;15.20;99.90;;;;;;4933292;28;20074;-61
2022/10/12 10:42:35;;;;;;;14.73;3.88;;;15.30;99.90;;;;;;4934260;29;20118;-60
2022/10/12 10:45:24;;;;;;;11.82;3.20;;;15.40;99.90;;;;;;4932205;28;20053;-61
2022/10/12 10:48:10;;;;;;;17.30;3.28;;;15.50;99.90;;;;;;4936913;28;20070;-60
2022/10/12 10:50:41;;;;;;;13.52;3.60;;;15.60;99.80;;;;;;4932675;28;20044;-60
2022/10/12 10:53:46;;;;;;;10.05;3.47;;;15.70;99.50;;;;;;4937951;28;20107;-60
2022/10/12 10:56:25;;;;;;;13.57;3.78;;;15.90;99.70;;;;;;4932182;28;20047;-62
2022/10/12 10:58:55;;;;;;;12.63;3.30;;;16.10;99.30;;;;;;4933231;28;20062;-61
2022/10/12 11:01:36;;;;;;;13.38;3.22;;;16.20;98.70;;;;;;4938940;29;20121;-61
2022/10/12 11:04:06;;;;;;;12.52;3.33;;;16.30;98.10;;;;;;4950679;28;20488;-62
2022/10/12 11:06:46;;;;;;;9.85;3.15;;;16.40;98.00;;;;;;4935487;28;20055;-62
2022/10/12 11:09:20;;;;;;;13.30;3.20;;;16.50;97.90;;;;;;4950966;28;20137;-60
2022/10/12 11:11:54;;;;;;;11.68;3.25;;;16.70;97.80;;;;;;4950438;28;20065;-61
2022/10/12 11:14:29;;;;;;;10.77;3.10;;;16.80;97.60;;;;;;4947571;28;20046;-61
2022/10/12 11:17:05;;;;;;;12.32;3.30;;;17.00;97.60;;;;;;4937272;28;20054;-61
2022/10/12 11:19:39;;;;;;;13.30;2.80;;;17.20;97.50;;;;;;4949926;28;20136;-62
2022/10/12 11:22:22;;;;;;;10.30;3.10;;;17.30;97.10;;;;;;4930447;28;20039;-62
2022/10/12 11:24:54;;;;;;;;;;;17.50;96.70;;;;;;4949378;28;20050;-61
2022/10/12 11:27:36;;;;;;;15.30;3.40;;;17.60;97.70;;;;;;4951974;28;19997;-63
2022/10/12 11:30:12;;;;;;;10.63;2.70;;;17.80;96.60;;;;;;4949789;28;20047;-62
2022/10/12 11:32:42;;;;;;;10.65;2.80;;;17.90;96.10;;;;;;4948015;28;20058;-61
2022/10/12 11:35:23;;;;;;;13.27;3.20;;;18.10;95.80;;;;;;4954193;28;20058;-61
2022/10/12 11:37:58;;;;;;;10.95;2.92;;;18.10;94.70;;;;;;4951266;28;20058;-62
2022/10/12 11:40:50;;;;;;;12.98;2.90;;;18.10;94.10;;;;;;4952362;28;20050;-62
2022/10/12 11:43:28;;;;;;;10.50;2.40;;;18.10;94.30;;;;;;4952418;28;20051;-61
2022/10/12 11:46:01;;;;;;;9.18;2.28;;;18.30;93.90;;;;;;4953016;28;20098;-61
2022/10/12 11:48:50;;;;;;;10.52;2.28;;;18.40;93.60;;;;;;4937074;28;20054;-62
2022/10/12 11:51:16;;;;;;;16.30;3.15;;;18.50;93.50;;;;;;4951954;28;20050;-62
2022/10/12 11:54:07;;;;;;;8.43;2.63;;;18.60;92.70;;;;;;4954360;28;20125;-61
2022/10/12 11:56:46;;;;;;;9.70;2.50;;;18.80;92.10;;;;;;4937501;28;20165;-60
2022/10/12 11:59:41;;;;;;;12.02;2.42;;;18.90;91.50;;;;;;4954964;28;20114;-61
2022/10/12 12:02:23;;;;;;;11.48;2.95;;;19.00;90.50;;;;;;4948045;28;20559;-62
2022/10/12 12:04:49;;;;;;;9.75;2.45;;;19.00;89.70;;;;;;4955023;28;20093;-62
2022/10/12 12:07:52;;;;;;;10.35;2.00;;;19.00;88.90;;;;;;4953291;28;20137;-61
2022/10/12 12:10:24;;;;;;;12.23;2.40;;;19.10;88.70;;;;;;4951499;28;20043;-61
2022/10/12 12:13:16;;;;;;;8.18;1.92;;;19.10;86.20;;;;;;4933366;28;20494;-61
2022/10/12 12:15:48;;;;;;;14.90;2.80;;;19.20;85.90;;;;;;4940175;28;20091;-62
2022/10/12 12:18:16;;;;;;;10.80;2.30;;;19.20;83.70;;;;;;4953493;28;20055;-61
2022/10/12 12:20:45;;;;;;;10.80;2.17;;;19.30;83.20;;;;;;4936208;28;20497;-61
2022/10/12 12:23:38;;;;;;;12.05;2.20;;;19.40;81.20;;;;;;4954262;28;20126;-63
2022/10/12 12:26:04;;;;;;;;;;;19.40;80.90;;;;;;4952721;28;20142;-61
2022/10/12 12:28:31;;;;;;;7.43;1.90;;;19.40;82.90;;;;;;4951577;28;19936;-62
2022/10/12 12:31:23;;;;;;;9.43;2.00;;;19.50;80.30;;;;;;4955808;28;20051;-61
2022/10/12 12:34:04;;;;;;;7.22;2.10;;;19.50;78.70;;;;;;4937452;28;20129;-62
2022/10/12 12:36:41;;;;;;;8.48;2.30;;;19.70;79.80;;;;;;4953163;28;20049;-60
2022/10/12 12:39:21;;;;;;;9.85;2.00;;;19.90;79.10;;;;;;4951673;28;20043;-61
2022/10/12 12:41:54;;;;;;;9.60;1.85;;;20.00;77.00;;;;;;4952227;28;20039;-62
2022/10/12 12:44:44;;;;;;;9.95;1.98;;;20.10;77.50;;;;;;4952509;28;20039;-62
2022/10/12 12:47:09;;;;;;;12.68;2.08;;;20.20;75.50;;;;;;4951947;28;20058;-62
2022/10/12 12:49:38;;;;;;;9.27;2.22;;;20.20;74.20;;;;;;4932699;28;20560;-62
2022/10/12 12:52:20;;;;;;;9.27;2.03;;;20.20;74.20;;;;;;4951619;28;20398;-62
2022/10/12 12:55:03;;;;;;;8.63;1.83;;;20.20;73.50;;;;;;4954314;28;20046;-62
2022/10/12 12:57:41;;;;;;;11.20;2.15;;;20.30;72.60;;;;;;4936843;28;20043;-61
2022/10/12 13:00:22;;;;;;;12.45;2.17;;;20.20;72.60;;;;;;4952126;28;20046;-62
2022/10/12 13:02:51;;;;;;;9.68;2.08;;;20.20;72.40;;;;;;4933385;28;20186;-62
2022/10/12 13:05:58;;;;;;;8.52;1.95;;;20.30;71.90;;;;;;4939956;28;20043;-61
2022/10/12 13:09:21;;;;;;;7.57;1.95;;;20.30;71.90;;;;;;4952339;28;20043;-62
2022/10/12 13:12:02;;;;;;;11.00;2.00;;;20.30;71.30;;;;;;4885780;29;20163;-61